Time;durP1;ratioP1;P1;durP2;ratioP2;P2;SDS_P1;SDS_P2;PMS_P1;PMS_P2;Temp;Humidity;BMP_temperature;BMP_pressure;BME280_temperature;BME280_humidity;BME280_pressure;Samples;Min_cycle;Max_cycle;Signal;HPM_P1;HPM_P2
2021/09/28 00:00:35;;;;;;;10.50;2.13;;;13.30;72.00;;;;;;5036609;28;20025;-79
2021/09/28 00:03:01;;;;;;;9.85;2.53;;;13.30;71.70;;;;;;5037909;28;20438;-79
2021/09/28 00:05:28;;;;;;;8.77;1.88;;;13.30;71.60;;;;;;5036553;28;20075;-79
2021/09/28 00:07:54;;;;;;;6.35;1.60;;;13.30;71.30;;;;;;5036550;28;20025;-78
2021/09/28 00:10:20;;;;;;;9.18;1.73;;;13.30;71.30;;;;;;5037063;28;20026;-78
2021/09/28 00:12:46;;;;;;;9.90;1.88;;;13.30;71.30;;;;;;5037839;28;20026;-79
2021/09/28 00:15:14;;;;;;;9.40;1.88;;;13.30;71.60;;;;;;5037627;28;20036;-79
2021/09/28 00:17:40;;;;;;;8.38;2.40;;;13.20;71.40;;;;;;5037786;28;20026;-79
2021/09/28 00:20:08;;;;;;;13.55;1.65;;;13.20;71.80;;;;;;5037889;28;20490;-79
2021/09/28 00:22:35;;;;;;;10.90;1.70;;;13.30;72.10;;;;;;5036320;28;20025;-79
2021/09/28 00:25:01;;;;;;;8.10;1.55;;;13.20;72.50;;;;;;5037782;28;20053;-78
2021/09/28 00:27:26;;;;;;;8.02;1.67;;;13.20;71.60;;;;;;5036314;28;20495;-78
2021/09/28 00:29:52;;;;;;;4.20;1.27;;;13.20;71.10;;;;;;5036402;28;20028;-78
2021/09/28 00:32:18;;;;;;;7.25;1.52;;;13.20;71.00;;;;;;5036773;28;20113;-78
2021/09/28 00:34:45;;;;;;;5.65;1.40;;;13.10;70.40;;;;;;5035961;28;20053;-78
2021/09/28 00:37:11;;;;;;;6.43;1.52;;;13.10;70.20;;;;;;5036362;28;20034;-78
2021/09/28 00:39:37;;;;;;;6.43;1.40;;;13.10;70.00;;;;;;5035944;28;20052;-79
2021/09/28 00:42:04;;;;;;;7.05;1.65;;;13.00;70.00;;;;;;5036286;28;20479;-79
2021/09/28 00:44:33;;;;;;;6.97;2.08;;;12.90;70.10;;;;;;5036219;28;20395;-79
2021/09/28 00:46:59;;;;;;;7.05;1.40;;;12.90;70.00;;;;;;5037468;28;20029;-78
2021/09/28 00:49:25;;;;;;;10.02;2.13;;;12.80;70.00;;;;;;5036201;28;20033;-79
2021/09/28 00:51:51;;;;;;;8.38;1.80;;;12.80;70.60;;;;;;5037834;28;20392;-79
2021/09/28 00:54:18;;;;;;;7.22;1.95;;;12.80;70.60;;;;;;5035595;28;20037;-79
2021/09/28 00:56:44;;;;;;;8.13;1.98;;;12.80;70.90;;;;;;5037665;28;20071;-78
2021/09/28 00:59:11;;;;;;;8.75;1.85;;;12.80;71.70;;;;;;5036138;28;20034;-79
2021/09/28 01:01:37;;;;;;;8.43;1.90;;;12.80;72.60;;;;;;5036267;28;20017;-78
2021/09/28 01:04:03;;;;;;;10.32;1.88;;;12.80;72.50;;;;;;5035982;28;20078;-78
2021/09/28 01:06:29;;;;;;;6.93;1.58;;;12.80;72.40;;;;;;5036278;28;20068;-76
2021/09/28 01:08:55;;;;;;;6.47;1.60;;;12.90;71.70;;;;;;5035569;28;20029;-79
2021/09/28 01:11:21;;;;;;;7.55;1.52;;;12.90;71.40;;;;;;5036110;28;20051;-79
2021/09/28 01:13:47;;;;;;;6.95;1.50;;;12.90;71.70;;;;;;5035936;28;20398;-78
2021/09/28 01:16:13;;;;;;;7.20;1.42;;;12.90;71.30;;;;;;5037584;28;20100;-78
2021/09/28 01:18:41;;;;;;;10.50;1.65;;;12.90;71.30;;;;;;5036385;28;20018;-79
2021/09/28 01:21:10;;;;;;;7.75;1.50;;;12.90;71.30;;;;;;5036015;28;20391;-78
2021/09/28 01:23:38;;;;;;;5.60;1.58;;;12.90;71.00;;;;;;5035354;28;20499;-78
2021/09/28 01:26:04;;;;;;;5.05;1.45;;;12.80;71.00;;;;;;5036012;28;20026;-79
2021/09/28 01:28:30;;;;;;;6.85;1.63;;;12.80;70.90;;;;;;5037147;28;20079;-78
2021/09/28 01:30:58;;;;;;;7.75;2.03;;;12.70;71.00;;;;;;5037005;28;20503;-78
2021/09/28 01:33:24;;;;;;;10.35;1.38;;;12.70;71.80;;;;;;5036735;28;20029;-78
2021/09/28 01:35:50;;;;;;;5.30;1.60;;;12.70;71.40;;;;;;5035589;28;20069;-78
2021/09/28 01:38:16;;;;;;;6.18;1.52;;;12.70;71.50;;;;;;5036820;28;20392;-78
2021/09/28 01:40:42;;;;;;;7.05;1.80;;;12.70;71.30;;;;;;5036873;28;20052;-78
2021/09/28 01:43:10;;;;;;;10.52;1.85;;;12.60;71.50;;;;;;5035430;28;20480;-78
2021/09/28 01:45:37;;;;;;;7.60;1.58;;;12.50;71.10;;;;;;5039463;28;20035;-79
2021/09/28 01:48:03;;;;;;;6.10;1.83;;;12.50;70.90;;;;;;5040401;28;20049;-78
2021/09/28 01:50:32;;;;;;;6.30;1.50;;;12.50;70.80;;;;;;5040511;28;20056;-78
2021/09/28 01:52:58;;;;;;;6.82;1.40;;;12.50;70.70;;;;;;5040039;28;20460;-78
2021/09/28 01:55:25;;;;;;;6.30;1.67;;;12.50;70.70;;;;;;5040173;28;20028;-78
2021/09/28 01:57:56;;;;;;;6.13;1.85;;;12.50;71.30;;;;;;5039227;28;20498;-78
2021/09/28 02:00:23;;;;;;;9.35;1.67;;;12.40;71.10;;;;;;5040249;28;20415;-78
2021/09/28 02:02:49;;;;;;;4.20;1.35;;;12.40;71.00;;;;;;5040169;28;20029;-78
2021/09/28 02:05:15;;;;;;;7.90;1.27;;;12.40;70.90;;;;;;5039003;28;20432;-78
2021/09/28 02:07:42;;;;;;;4.97;1.40;;;12.40;71.10;;;;;;5039983;28;20045;-78
2021/09/28 02:10:08;;;;;;;4.60;1.45;;;12.40;71.10;;;;;;5039988;28;20100;-78
2021/09/28 02:12:34;;;;;;;6.50;1.58;;;12.40;71.10;;;;;;5040449;28;20380;-78
2021/09/28 02:15:00;;;;;;;4.85;1.35;;;12.30;71.20;;;;;;5040328;28;20028;-78
2021/09/28 02:17:26;;;;;;;7.00;1.75;;;12.30;71.30;;;;;;5040388;28;20060;-78
2021/09/28 02:19:51;;;;;;;5.10;1.30;;;12.30;71.40;;;;;;5039845;28;20059;-78
2021/09/28 02:22:17;;;;;;;5.65;1.20;;;12.30;71.30;;;;;;5038275;28;20030;-78
2021/09/28 02:24:43;;;;;;;7.75;1.80;;;12.30;71.40;;;;;;5039883;28;20025;-79
2021/09/28 02:27:09;;;;;;;8.27;1.60;;;12.30;72.00;;;;;;5040063;28;20030;-79
2021/09/28 02:29:35;;;;;;;8.45;1.63;;;12.30;71.90;;;;;;5038545;28;20108;-79
2021/09/28 02:32:01;;;;;;;5.30;1.33;;;12.30;72.00;;;;;;5039652;28;20029;-78
2021/09/28 02:34:27;;;;;;;5.38;1.23;;;12.40;71.90;;;;;;5039882;28;20022;-78
2021/09/28 02:36:53;;;;;;;9.48;1.60;;;12.30;71.90;;;;;;5026277;28;20084;-78
2021/09/28 02:39:19;;;;;;;6.75;1.42;;;12.30;71.70;;;;;;5039321;28;20021;-78
2021/09/28 02:41:45;;;;;;;5.05;1.23;;;12.30;71.70;;;;;;5039521;28;20079;-78
2021/09/28 02:44:11;;;;;;;6.00;1.20;;;12.30;71.70;;;;;;5039461;28;20416;-78
2021/09/28 02:46:36;;;;;;;6.38;1.45;;;12.30;71.70;;;;;;5039433;28;20021;-78
2021/09/28 02:49:03;;;;;;;7.13;1.65;;;12.30;72.20;;;;;;5039743;28;20024;-78
2021/09/28 02:51:29;;;;;;;5.45;1.50;;;12.30;72.40;;;;;;5039674;28;20032;-78
2021/09/28 02:53:55;;;;;;;4.82;1.10;;;12.30;72.10;;;;;;5037684;28;20029;-78
2021/09/28 02:56:21;;;;;;;8.07;1.70;;;12.30;72.00;;;;;;5037303;28;20025;-78
2021/09/28 02:58:47;;;;;;;9.85;1.70;;;12.30;72.10;;;;;;5038063;28;20403;-78
2021/09/28 03:01:13;;;;;;;6.05;1.80;;;12.30;71.90;;;;;;5037805;28;20025;-78
2021/09/28 03:03:39;;;;;;;7.28;1.23;;;12.30;72.20;;;;;;5037848;28;20474;-77
2021/09/28 03:06:05;;;;;;;5.80;1.70;;;12.30;72.10;;;;;;5038230;28;20029;-77
2021/09/28 03:08:34;;;;;;;5.65;1.45;;;12.30;72.10;;;;;;5037466;28;20024;-78
2021/09/28 03:11:00;;;;;;;5.65;1.58;;;12.30;72.20;;;;;;5037856;28;20026;-78
2021/09/28 03:13:26;;;;;;;3.97;1.10;;;12.30;72.50;;;;;;5038795;28;20104;-78
2021/09/28 03:15:52;;;;;;;6.82;2.05;;;12.30;72.80;;;;;;5037758;28;20029;-78
2021/09/28 03:18:18;;;;;;;7.60;1.50;;;12.30;72.90;;;;;;5037518;28;20067;-78
2021/09/28 03:20:44;;;;;;;9.48;1.98;;;12.30;73.10;;;;;;5038933;28;20372;-78
2021/09/28 03:23:10;;;;;;;7.35;1.40;;;12.30;73.00;;;;;;5038444;28;20056;-78
2021/09/28 03:25:36;;;;;;;5.65;1.10;;;12.40;73.20;;;;;;5038684;28;20112;-78
2021/09/28 03:28:03;;;;;;;8.07;1.65;;;12.40;73.00;;;;;;5038753;28;20025;-78
2021/09/28 03:30:29;;;;;;;4.05;1.30;;;12.40;73.00;;;;;;5039024;28;20030;-78
2021/09/28 03:32:55;;;;;;;6.38;1.50;;;12.40;72.50;;;;;;5037139;28;20400;-79
2021/09/28 03:35:21;;;;;;;9.30;1.83;;;12.40;72.40;;;;;;5036837;28;20052;-78
2021/09/28 03:37:52;;;;;;;5.60;1.60;;;12.40;72.40;;;;;;5037135;28;20021;-78
2021/09/28 03:40:18;;;;;;;8.43;2.38;;;12.40;73.60;;;;;;5038644;28;20032;-78
2021/09/28 03:42:44;;;;;;;6.82;1.88;;;12.40;74.30;;;;;;5037093;28;20472;-78
2021/09/28 03:45:10;;;;;;;6.25;1.77;;;12.50;73.50;;;;;;5037579;28;20025;-78
2021/09/28 03:47:36;;;;;;;8.10;2.25;;;12.50;73.70;;;;;;5036800;28;20029;-78
2021/09/28 03:50:03;;;;;;;8.55;1.67;;;12.50;74.00;;;;;;5038657;28;20087;-78
2021/09/28 03:52:29;;;;;;;5.40;1.80;;;12.50;73.80;;;;;;5036662;28;20029;-78
2021/09/28 03:54:55;;;;;;;8.63;1.73;;;12.50;73.50;;;;;;5038336;28;20026;-78
2021/09/28 03:57:21;;;;;;;5.40;1.48;;;12.50;74.30;;;;;;5036893;28;20388;-78
2021/09/28 03:59:47;;;;;;;9.07;1.80;;;12.50;74.60;;;;;;5037111;28;20024;-78
2021/09/28 04:02:13;;;;;;;7.50;2.15;;;12.50;74.90;;;;;;5037829;28;20033;-79
2021/09/28 04:04:40;;;;;;;7.18;1.60;;;12.60;75.00;;;;;;5038210;28;20026;-78
2021/09/28 04:07:05;;;;;;;4.45;1.50;;;12.60;75.30;;;;;;5035368;28;20036;-78
2021/09/28 04:09:31;;;;;;;5.22;1.90;;;12.60;75.30;;;;;;5036371;28;20026;-78
2021/09/28 04:11:57;;;;;;;5.55;1.98;;;12.60;74.90;;;;;;5036277;28;20112;-79
2021/09/28 04:14:23;;;;;;;6.18;2.13;;;12.70;74.50;;;;;;5036690;28;20029;-78
2021/09/28 04:16:49;;;;;;;6.35;1.40;;;12.60;73.90;;;;;;5036648;28;20027;-78
2021/09/28 04:19:14;;;;;;;6.32;1.60;;;12.70;74.00;;;;;;5036604;28;20018;-78
2021/09/28 04:21:42;;;;;;;6.28;1.70;;;12.60;73.80;;;;;;5037519;28;20025;-78
2021/09/28 04:24:09;;;;;;;5.72;1.48;;;12.60;73.80;;;;;;5036319;28;20060;-78
2021/09/28 04:26:35;;;;;;;5.28;1.30;;;12.60;74.20;;;;;;5037675;28;20491;-78
2021/09/28 04:29:02;;;;;;;7.72;1.40;;;12.60;73.90;;;;;;5036699;28;20041;-78
2021/09/28 04:31:28;;;;;;;6.38;1.50;;;12.60;73.90;;;;;;5037423;28;20025;-79
2021/09/28 04:33:54;;;;;;;6.10;1.20;;;12.50;73.70;;;;;;5037476;28;20025;-79
2021/09/28 04:36:22;;;;;;;5.32;1.30;;;12.50;73.40;;;;;;5037264;28;20049;-78
2021/09/28 04:38:48;;;;;;;5.32;1.35;;;12.50;73.30;;;;;;5035917;28;20017;-78
2021/09/28 04:41:14;;;;;;;7.22;1.65;;;12.50;74.00;;;;;;5036036;28;20075;-78
2021/09/28 04:43:40;;;;;;;7.78;2.03;;;12.50;73.90;;;;;;5037586;28;20034;-78
2021/09/28 04:46:05;;;;;;;8.18;1.70;;;12.50;75.50;;;;;;5036697;28;20373;-79
2021/09/28 04:48:32;;;;;;;5.97;1.98;;;12.50;74.60;;;;;;5036366;28;20017;-78
2021/09/28 04:50:57;;;;;;;4.97;1.63;;;12.50;74.40;;;;;;5037476;28;20032;-78
2021/09/28 04:53:24;;;;;;;8.77;2.20;;;12.50;75.40;;;;;;5037176;28;20443;-78
2021/09/28 04:55:55;;;;;;;5.07;1.48;;;12.50;76.30;;;;;;5036038;28;20032;-79
2021/09/28 04:58:26;;;;;;;7.88;1.70;;;12.60;76.10;;;;;;5035939;28;20021;-78
2021/09/28 05:00:53;;;;;;;9.70;2.08;;;12.60;76.00;;;;;;5035797;28;20099;-78
2021/09/28 05:03:19;;;;;;;11.40;2.05;;;12.60;76.20;;;;;;5037346;28;20415;-79
2021/09/28 05:05:45;;;;;;;11.82;2.10;;;12.60;77.70;;;;;;5035961;28;20025;-78
2021/09/28 05:08:11;;;;;;;6.72;2.05;;;12.60;76.40;;;;;;5035868;28;20873;-77
2021/09/28 05:10:37;;;;;;;4.50;1.55;;;12.60;75.90;;;;;;5035588;28;20033;-76
2021/09/28 05:13:05;;;;;;;6.68;1.60;;;12.60;75.20;;;;;;5037201;28;20149;-81
2021/09/28 05:15:31;;;;;;;4.65;1.35;;;12.60;74.90;;;;;;5037103;28;20029;-76
2021/09/28 05:17:57;;;;;;;6.03;1.70;;;12.70;74.60;;;;;;5037127;28;20029;-76
2021/09/28 05:20:23;;;;;;;7.93;1.60;;;12.70;74.70;;;;;;5040464;28;20021;-75
2021/09/28 05:22:49;;;;;;;10.90;1.92;;;12.70;76.20;;;;;;5039685;28;20025;-77
2021/09/28 05:25:15;;;;;;;12.68;2.28;;;12.70;76.10;;;;;;5040717;28;20086;-76
2021/09/28 05:27:41;;;;;;;12.82;2.65;;;12.70;76.90;;;;;;5040895;28;20039;-76
2021/09/28 05:30:08;;;;;;;7.78;2.00;;;12.70;76.50;;;;;;5040868;28;20476;-74
2021/09/28 05:32:33;;;;;;;10.82;2.35;;;12.70;76.10;;;;;;5040642;28;20018;-75
2021/09/28 05:34:59;;;;;;;8.95;2.00;;;12.80;76.40;;;;;;5040478;28;20029;-73
2021/09/28 05:37:25;;;;;;;8.30;2.17;;;12.70;76.00;;;;;;5040474;28;20419;-74
2021/09/28 05:39:51;;;;;;;6.13;2.33;;;12.80;76.50;;;;;;5040501;28;20021;-76
2021/09/28 05:42:17;;;;;;;9.52;2.25;;;12.80;76.80;;;;;;5040517;28;20096;-76
2021/09/28 05:44:43;;;;;;;7.97;1.92;;;12.80;77.10;;;;;;5040617;28;20472;-75
2021/09/28 05:47:09;;;;;;;6.53;1.83;;;12.80;76.30;;;;;;5040620;28;20562;-76
2021/09/28 05:49:36;;;;;;;7.28;1.77;;;12.80;75.90;;;;;;5040471;28;20024;-76
2021/09/28 05:52:07;;;;;;;5.60;1.67;;;12.80;76.40;;;;;;5040350;28;20076;-75
2021/09/28 05:54:33;;;;;;;6.53;1.80;;;12.80;76.20;;;;;;5040020;28;20117;-76
2021/09/28 05:56:58;;;;;;;7.05;2.08;;;12.80;77.00;;;;;;5040466;28;20045;-75
2021/09/28 05:59:24;;;;;;;7.95;2.65;;;12.80;77.10;;;;;;5040193;28;20029;-75
2021/09/28 06:01:50;;;;;;;9.43;2.38;;;12.70;77.10;;;;;;5040242;28;20022;-75
2021/09/28 06:04:17;;;;;;;11.88;2.83;;;12.80;76.80;;;;;;5039998;28;20030;-75
2021/09/28 06:06:43;;;;;;;7.57;2.17;;;12.80;77.70;;;;;;5039316;28;20026;-74
2021/09/28 06:09:09;;;;;;;4.93;1.67;;;12.80;76.80;;;;;;5038821;28;20033;-74
2021/09/28 06:11:35;;;;;;;6.50;1.55;;;12.70;76.30;;;;;;5039993;28;20047;-75
2021/09/28 06:14:01;;;;;;;7.10;1.60;;;12.80;76.80;;;;;;5039948;28;20030;-74
2021/09/28 06:16:26;;;;;;;7.68;1.83;;;12.80;76.80;;;;;;5040088;28;20044;-74
2021/09/28 06:18:52;;;;;;;6.75;1.92;;;12.80;76.80;;;;;;5039900;28;20025;-74
2021/09/28 06:21:18;;;;;;;10.23;1.60;;;12.70;76.50;;;;;;5039977;28;20025;-74
2021/09/28 06:23:44;;;;;;;6.45;1.60;;;12.70;76.60;;;;;;5039446;28;20079;-74
2021/09/28 06:26:09;;;;;;;9.60;2.50;;;12.70;76.10;;;;;;5038563;28;20057;-74
2021/09/28 06:28:36;;;;;;;6.00;1.77;;;12.70;76.10;;;;;;5039909;28;20453;-74
2021/09/28 06:31:03;;;;;;;6.80;1.35;;;12.70;76.30;;;;;;5038622;28;20113;-74
2021/09/28 06:33:29;;;;;;;11.52;2.35;;;12.70;76.50;;;;;;5039857;28;20392;-74
2021/09/28 06:35:54;;;;;;;8.90;1.85;;;12.70;76.70;;;;;;5039573;28;20045;-74
2021/09/28 06:38:20;;;;;;;7.40;1.67;;;12.70;76.80;;;;;;5037931;28;20562;-74
2021/09/28 06:40:46;;;;;;;6.40;1.73;;;12.70;76.40;;;;;;5039602;28;20076;-74
2021/09/28 06:43:12;;;;;;;4.03;1.25;;;12.70;76.40;;;;;;5039608;28;20056;-74
2021/09/28 06:45:39;;;;;;;9.65;2.10;;;12.70;76.00;;;;;;5039831;28;20376;-74
2021/09/28 06:48:04;;;;;;;7.35;1.80;;;12.70;76.10;;;;;;5039374;28;20392;-74
2021/09/28 06:50:30;;;;;;;7.15;1.70;;;12.80;76.50;;;;;;5039554;28;20029;-74
2021/09/28 06:52:56;;;;;;;5.40;1.63;;;12.80;76.00;;;;;;5038986;28;20029;-74
2021/09/28 06:55:22;;;;;;;4.47;1.40;;;12.90;76.30;;;;;;5039209;28;20500;-74
2021/09/28 06:57:48;;;;;;;8.43;2.00;;;13.00;76.10;;;;;;5039159;28;20036;-75
2021/09/28 07:00:14;;;;;;;8.60;1.92;;;13.10;76.90;;;;;;5039385;28;20022;-74
2021/09/28 07:02:40;;;;;;;8.45;2.33;;;13.10;76.70;;;;;;5038978;28;20509;-74
2021/09/28 07:05:11;;;;;;;7.85;2.30;;;13.20;77.50;;;;;;5039322;28;20025;-74
2021/09/28 07:07:41;;;;;;;6.63;1.90;;;13.30;76.80;;;;;;5038869;28;20117;-74
2021/09/28 07:10:07;;;;;;;6.80;1.50;;;13.30;76.40;;;;;;5039103;28;20096;-74
2021/09/28 07:12:34;;;;;;;6.75;1.77;;;13.40;76.50;;;;;;5038827;28;20029;-75
2021/09/28 07:14:59;;;;;;;9.88;2.63;;;13.40;76.80;;;;;;5038895;28;20048;-75
2021/09/28 07:17:25;;;;;;;7.30;2.00;;;13.50;77.40;;;;;;5038840;28;20025;-75
2021/09/28 07:19:51;;;;;;;8.20;1.67;;;13.50;77.80;;;;;;5038717;28;20033;-75
2021/09/28 07:22:17;;;;;;;8.30;1.98;;;13.60;77.20;;;;;;5038562;28;20021;-75
2021/09/28 07:24:42;;;;;;;8.80;1.70;;;13.60;76.90;;;;;;5038666;28;20021;-74
2021/09/28 07:27:08;;;;;;;7.65;1.77;;;13.70;76.50;;;;;;5038713;28;20033;-74
2021/09/28 07:29:34;;;;;;;7.78;1.77;;;13.80;76.30;;;;;;5038713;28;20484;-75
2021/09/28 07:32:00;;;;;;;9.23;1.60;;;13.80;76.10;;;;;;5038433;28;20025;-75
2021/09/28 07:34:26;;;;;;;11.85;1.80;;;13.90;76.10;;;;;;5038461;28;20080;-74
2021/09/28 07:36:51;;;;;;;7.10;2.10;;;13.90;76.00;;;;;;5038060;28;20045;-75
2021/09/28 07:39:17;;;;;;;7.20;2.00;;;14.00;75.90;;;;;;5038811;28;20025;-75
2021/09/28 07:41:43;;;;;;;10.25;2.28;;;14.00;76.00;;;;;;5038365;28;20022;-75
2021/09/28 07:44:09;;;;;;;9.68;2.25;;;14.10;76.50;;;;;;5038323;28;20035;-75
2021/09/28 07:46:35;;;;;;;8.02;2.03;;;14.20;76.90;;;;;;5038341;28;20014;-74
2021/09/28 07:49:00;;;;;;;9.80;2.17;;;14.20;77.10;;;;;;5038267;28;20472;-75
2021/09/28 07:51:26;;;;;;;10.32;2.13;;;14.40;76.90;;;;;;5038109;28;20018;-74
2021/09/28 07:53:52;;;;;;;7.80;1.90;;;14.50;77.70;;;;;;5036601;28;20036;-74
2021/09/28 07:56:19;;;;;;;8.48;2.17;;;14.70;77.50;;;;;;5038356;28;20063;-73
2021/09/28 07:58:45;;;;;;;11.73;2.72;;;14.70;76.90;;;;;;5038110;28;20025;-74
2021/09/28 08:01:11;;;;;;;8.35;1.85;;;14.90;76.80;;;;;;5038364;28;20018;-74
2021/09/28 08:03:38;;;;;;;7.32;1.60;;;15.00;76.60;;;;;;5037826;28;20071;-75
2021/09/28 08:06:04;;;;;;;9.25;1.80;;;15.10;76.20;;;;;;5037864;28;20032;-75
2021/09/28 08:08:30;;;;;;;9.85;2.10;;;15.20;76.50;;;;;;5037293;28;20029;-74
2021/09/28 08:10:55;;;;;;;9.70;2.20;;;15.20;76.00;;;;;;5038362;28;20447;-74
2021/09/28 08:13:22;;;;;;;11.05;2.20;;;15.40;76.20;;;;;;5036521;28;20025;-73
2021/09/28 08:15:49;;;;;;;8.43;1.50;;;15.50;76.30;;;;;;5038125;28;20025;-75
2021/09/28 08:18:15;;;;;;;9.30;1.67;;;15.60;76.00;;;;;;5037662;28;20020;-75
2021/09/28 08:20:43;;;;;;;8.52;1.80;;;15.80;75.80;;;;;;5024922;28;20022;-74
2021/09/28 08:23:09;;;;;;;9.20;1.95;;;16.00;75.60;;;;;;5037390;28;20028;-75
2021/09/28 08:31:05;;;;;;;11.88;1.70;;;16.50;74.70;;;;;;5037620;28;20403;-73
2021/09/28 08:33:32;;;;;;;13.82;1.73;;;16.60;73.90;;;;;;5037317;28;20488;-75
2021/09/28 08:35:59;;;;;;;8.20;1.73;;;16.70;73.60;;;;;;5037340;28;20090;-75
2021/09/28 08:38:28;;;;;;;8.90;1.60;;;16.70;73.40;;;;;;5037277;28;20022;-75
2021/09/28 08:40:55;;;;;;;10.90;1.98;;;16.70;73.30;;;;;;5037430;28;20069;-74
2021/09/28 08:43:21;;;;;;;9.05;1.70;;;16.80;73.30;;;;;;5037299;28;20029;-75
2021/09/28 08:45:46;;;;;;;10.68;1.90;;;16.90;73.30;;;;;;5037496;28;20029;-75
2021/09/28 08:48:13;;;;;;;10.15;1.90;;;17.00;73.60;;;;;;5037342;28;20041;-75
2021/09/28 08:50:41;;;;;;;9.13;1.95;;;17.20;73.50;;;;;;5036060;28;20076;-73
2021/09/28 08:53:09;;;;;;;8.65;2.45;;;17.50;73.10;;;;;;5038080;28;20476;-75
2021/09/28 08:55:36;;;;;;;11.20;1.80;;;17.80;73.10;;;;;;5043711;28;20399;-75
2021/09/28 08:58:23;;;;;;;9.98;1.85;;;18.20;72.50;;;;;;5044441;28;20017;-74
2021/09/28 09:00:51;;;;;;;10.18;2.00;;;18.70;72.60;;;;;;5043970;28;20025;-75
2021/09/28 09:03:25;;;;;;;9.68;2.28;;;19.40;71.60;;;;;;5044050;28;20018;-72
2021/09/28 09:05:51;;;;;;;10.80;2.50;;;20.00;70.10;;;;;;5043838;28;20018;-72
2021/09/28 09:08:27;;;;;;;10.20;1.90;;;20.50;68.40;;;;;;5043743;28;20537;-72
2021/09/28 09:11:01;;;;;;;11.05;1.75;;;20.90;65.90;;;;;;5043838;28;20029;-73
2021/09/28 09:13:38;;;;;;;6.70;1.63;;;20.90;65.00;;;;;;5043654;28;20040;-72
2021/09/28 09:16:05;;;;;;;12.52;2.20;;;20.80;63.70;;;;;;5043824;28;20036;-73
2021/09/28 09:18:35;;;;;;;10.57;2.38;;;20.50;63.80;;;;;;5043669;28;20021;-73
2021/09/28 09:21:07;;;;;;;12.65;1.65;;;20.40;64.20;;;;;;5043752;28;20021;-73
2021/09/28 09:23:45;;;;;;;10.90;1.80;;;20.30;65.00;;;;;;5043462;28;20052;-72
2021/09/28 09:26:12;;;;;;;10.13;1.70;;;20.30;65.70;;;;;;5044003;28;20433;-72
2021/09/28 09:28:54;;;;;;;10.73;1.90;;;20.40;65.60;;;;;;5043520;28;20025;-73
2021/09/28 09:31:34;;;;;;;10.23;1.60;;;20.60;64.40;;;;;;5043673;28;20026;-72
2021/09/28 09:34:14;;;;;;;6.53;1.63;;;20.60;64.60;;;;;;5043439;28;20032;-72
2021/09/28 09:36:41;;;;;;;9.15;1.73;;;20.60;64.90;;;;;;5041210;28;20507;-72
2021/09/28 09:39:11;;;;;;;8.88;1.75;;;20.70;64.30;;;;;;5043395;28;20436;-72
2021/09/28 09:41:41;;;;;;;8.68;1.83;;;20.90;64.30;;;;;;5043531;28;20109;-72
2021/09/28 09:44:06;;;;;;;9.15;1.60;;;20.90;63.60;;;;;;5043437;28;20108;-73
2021/09/28 09:46:44;;;;;;;11.20;1.90;;;20.90;63.10;;;;;;5043372;28;20049;-72
2021/09/28 09:49:12;;;;;;;6.97;1.50;;;20.90;63.10;;;;;;5043469;28;20048;-72
2021/09/28 09:51:46;;;;;;;9.48;2.45;;;20.90;63.40;;;;;;5043511;28;20026;-72
2021/09/28 09:54:12;;;;;;;10.55;1.67;;;20.90;64.00;;;;;;5041865;28;20025;-72
2021/09/28 09:56:54;;;;;;;9.23;1.52;;;20.90;63.60;;;;;;5042699;28;20032;-72
2021/09/28 09:59:22;;;;;;;10.93;2.00;;;20.90;62.90;;;;;;5043268;28;20033;-72
2021/09/28 10:01:50;;;;;;;9.20;1.65;;;20.90;62.70;;;;;;5043538;28;20022;-72
2021/09/28 10:04:18;;;;;;;8.70;1.60;;;20.80;62.60;;;;;;5042877;28;20483;-72
2021/09/28 10:06:44;;;;;;;8.90;1.35;;;20.80;62.80;;;;;;5040123;28;20479;-73
2021/09/28 10:09:30;;;;;;;7.68;1.77;;;20.70;63.20;;;;;;5038579;28;20030;-72
2021/09/28 10:11:58;;;;;;;8.48;1.95;;;20.60;63.40;;;;;;5038676;28;20108;-72
2021/09/28 10:14:36;;;;;;;8.32;1.58;;;20.50;63.20;;;;;;5040165;28;20026;-73
2021/09/28 10:17:23;;;;;;;6.75;1.48;;;20.50;62.30;;;;;;5039967;28;20032;-72
2021/09/28 10:19:51;;;;;;;8.07;2.30;;;20.50;63.10;;;;;;5040002;28;20510;-72
2021/09/28 10:22:36;;;;;;;7.45;1.58;;;20.60;63.30;;;;;;5039815;28;20026;-73
2021/09/28 10:25:22;;;;;;;8.07;1.60;;;20.70;63.00;;;;;;5039686;28;20029;-73
2021/09/28 10:28:14;;;;;;;9.70;1.70;;;20.70;62.80;;;;;;5039847;28;20101;-72
2021/09/28 10:30:42;;;;;;;9.90;2.10;;;20.90;63.10;;;;;;5039924;28;20108;-73
2021/09/28 10:33:11;;;;;;;10.45;1.77;;;21.20;62.20;;;;;;5039603;28;20028;-72
2021/09/28 10:35:58;;;;;;;10.27;1.70;;;21.60;60.80;;;;;;5039475;28;20057;-73
2021/09/28 10:38:53;;;;;;;8.27;1.42;;;21.80;60.80;;;;;;5039472;28;20029;-73
2021/09/28 10:41:38;;;;;;;6.90;1.45;;;22.20;62.90;;;;;;5039459;28;20108;-72
2021/09/28 10:44:39;;;;;;;5.50;1.40;;;23.00;62.20;;;;;;5039685;28;20032;-72
2021/09/28 10:47:06;;;;;;;7.65;1.63;;;23.50;59.20;;;;;;5039683;28;20057;-73
2021/09/28 10:49:34;;;;;;;7.30;1.60;;;23.70;57.20;;;;;;5039280;28;20033;-72
2021/09/28 10:52:21;;;;;;;8.70;1.30;;;23.50;57.50;;;;;;5039256;28;20029;-72
2021/09/28 10:55:06;;;;;;;8.88;1.52;;;23.20;55.00;;;;;;5039651;28;20040;-73
2021/09/28 10:57:54;;;;;;;8.30;2.08;;;22.80;55.60;;;;;;5039460;28;20080;-72
2021/09/28 11:00:21;;;;;;;9.63;1.50;;;22.50;56.60;;;;;;5039392;28;20031;-72
2021/09/28 11:02:57;;;;;;;11.48;2.08;;;22.30;56.30;;;;;;5038985;28;20026;-72
2021/09/28 11:05:30;;;;;;;7.47;1.77;;;22.00;57.50;;;;;;5039207;28;20049;-72
2021/09/28 11:08:00;;;;;;;10.40;1.45;;;21.80;57.80;;;;;;5038843;28;20049;-74
2021/09/28 11:10:27;;;;;;;10.05;1.40;;;21.50;58.00;;;;;;5038878;28;20029;-72
2021/09/28 11:12:53;;;;;;;7.18;1.40;;;21.10;61.20;;;;;;5039011;28;20029;-72
2021/09/28 11:15:20;;;;;;;4.00;1.30;;;20.70;62.60;;;;;;5038840;28;20075;-72
2021/09/28 11:17:47;;;;;;;3.13;0.80;;;20.30;63.20;;;;;;5038463;28;20029;-73
2021/09/28 11:20:25;;;;;;;6.88;1.60;;;20.00;63.60;;;;;;5038153;28;20100;-71
2021/09/28 11:23:01;;;;;;;4.75;1.23;;;19.70;64.00;;;;;;5038479;28;20017;-72
2021/09/28 11:25:27;;;;;;;5.90;0.93;;;19.50;64.70;;;;;;5037264;28;20025;-71
2021/09/28 11:28:17;;;;;;;3.15;0.90;;;19.40;65.30;;;;;;5038629;28;20543;-71
2021/09/28 11:30:54;;;;;;;3.38;1.15;;;19.50;65.30;;;;;;5037340;28;20026;-72
2021/09/28 11:33:20;;;;;;;3.88;0.82;;;19.70;65.60;;;;;;5038529;28;20039;-72
2021/09/28 11:36:25;;;;;;;6.18;1.08;;;20.00;66.20;;;;;;5038332;28;20500;-72
2021/09/28 11:38:51;;;;;;;6.78;1.42;;;20.50;66.20;;;;;;5037908;28;20125;-72
2021/09/28 11:41:19;;;;;;;3.03;0.77;;;20.90;65.40;;;;;;5038679;28;20046;-74
2021/09/28 11:43:58;;;;;;;4.28;0.93;;;21.20;64.20;;;;;;5037084;28;20056;-73
2021/09/28 11:46:28;;;;;;;5.15;0.90;;;21.30;63.80;;;;;;5038408;28;20017;-73
2021/09/28 11:49:04;;;;;;;8.80;1.15;;;21.30;63.30;;;;;;5038448;28;20030;-73
2021/09/28 11:51:35;;;;;;;3.15;1.00;;;21.30;63.30;;;;;;5038378;28;20017;-72
2021/09/28 11:54:09;;;;;;;3.28;1.00;;;21.30;63.80;;;;;;5038030;28;20029;-73
2021/09/28 11:56:40;;;;;;;6.22;1.05;;;21.30;64.00;;;;;;5038398;28;20488;-73
2021/09/28 11:59:11;;;;;;;3.25;0.90;;;21.30;64.10;;;;;;5038122;28;20464;-73
2021/09/28 12:01:37;;;;;;;4.57;1.00;;;21.30;64.20;;;;;;5038340;28;20025;-73
2021/09/28 12:09:51;;;;;;;4.60;1.50;;;21.40;64.00;;;;;;5037858;28;20510;-73
2021/09/28 12:12:22;;;;;;;5.53;1.10;;;21.50;64.50;;;;;;5038082;28;20045;-73
2021/09/28 12:14:51;;;;;;;5.28;1.27;;;21.60;63.50;;;;;;5038028;28;20064;-73
2021/09/28 12:17:29;;;;;;;7.35;1.73;;;21.70;63.20;;;;;;5037707;28;20013;-73
2021/09/28 12:20:18;;;;;;;4.70;1.20;;;21.90;62.60;;;;;;5037829;28;20026;-73
2021/09/28 12:22:47;;;;;;;5.15;0.93;;;22.20;61.50;;;;;;5036452;28;20501;-73
2021/09/28 12:25:22;;;;;;;4.85;1.00;;;22.30;60.20;;;;;;5037483;28;20147;-73
2021/09/28 12:28:03;;;;;;;5.38;0.95;;;22.30;59.30;;;;;;5037253;28;20021;-73
2021/09/28 12:30:35;;;;;;;4.28;1.05;;;22.30;59.00;;;;;;5037835;28;20071;-73
2021/09/28 12:33:03;;;;;;;5.05;1.33;;;22.20;58.40;;;;;;5037792;28;20060;-72
2021/09/28 12:35:37;;;;;;;5.35;1.10;;;22.10;58.30;;;;;;5037567;28;20103;-75
2021/09/28 12:38:06;;;;;;;6.80;1.13;;;22.00;57.50;;;;;;5037093;28;20036;-74
2021/09/28 12:40:37;;;;;;;4.95;1.00;;;21.90;56.90;;;;;;5037696;28;20021;-74
2021/09/28 12:43:07;;;;;;;6.13;1.30;;;21.80;57.50;;;;;;5037369;28;20018;-73
2021/09/28 12:45:57;;;;;;;7.78;1.48;;;21.80;57.50;;;;;;5036153;28;20040;-75
2021/09/28 12:48:31;;;;;;;6.47;1.73;;;21.90;57.60;;;;;;5037572;28;20022;-73
2021/09/28 12:51:23;;;;;;;5.38;1.67;;;22.00;57.40;;;;;;5037334;28;20032;-73
2021/09/28 12:53:51;;;;;;;5.75;1.73;;;22.00;58.00;;;;;;5036811;28;20046;-72
2021/09/28 12:56:17;;;;;;;9.75;2.03;;;22.10;58.40;;;;;;5037362;28;20032;-73
2021/09/28 12:58:43;;;;;;;5.95;1.13;;;22.10;57.60;;;;;;5037427;28;20014;-73
2021/09/28 13:01:09;;;;;;;6.00;1.10;;;22.20;58.30;;;;;;5037313;28;20028;-73
2021/09/28 13:03:35;;;;;;;7.25;1.20;;;22.20;58.80;;;;;;5037395;28;20025;-73